Time;durP1;ratioP1;P1;durP2;ratioP2;P2;SDS_P1;SDS_P2;PMS_P1;PMS_P2;Temp;Humidity;BMP_temperature;BMP_pressure;BME280_temperature;BME280_humidity;BME280_pressure;Samples;Min_cycle;Max_cycle;Signal;HPM_P1;HPM_P2
2023/02/04 00:00:06;;;;;;;28.60;4.22;;;;;;;8.36;100.00;103405.69;5028477;28;20033;-70
2023/02/04 00:02:32;;;;;;;32.20;4.20;;;;;;;8.41;100.00;103400.53;5046502;28;20045;-65
2023/02/04 00:04:58;;;;;;;31.23;4.88;;;;;;;8.39;100.00;103402.22;5046615;28;20069;-62
2023/02/04 00:07:23;;;;;;;35.83;5.40;;;;;;;8.42;100.00;103391.78;5046387;28;20025;-70
2023/02/04 00:09:48;;;;;;;34.83;5.78;;;;;;;8.44;100.00;103392.69;5046531;28;20025;-68
2023/02/04 00:12:14;;;;;;;34.15;5.88;;;;;;;8.38;100.00;103393.47;5047756;28;20033;-71
2023/02/04 00:14:39;;;;;;;39.85;6.38;;;;;;;8.42;100.00;103389.16;5047388;28;20044;-69
2023/02/04 00:17:06;;;;;;;35.58;6.03;;;;;;;8.37;100.00;103390.84;5028680;28;20471;-69
2023/02/04 00:19:32;;;;;;;37.50;4.45;;;;;;;8.37;100.00;103396.09;5047121;28;20033;-72
2023/02/04 00:21:58;;;;;;;32.17;5.05;;;;;;;8.38;100.00;103390.84;5046791;28;20040;-66
2023/02/04 00:24:23;;;;;;;37.13;5.38;;;;;;;8.32;100.00;103394.28;5045585;28;20079;-71
2023/02/04 00:26:48;;;;;;;37.88;4.65;;;;;;;8.37;100.00;103396.09;5047874;28;20524;-70
2023/02/04 00:29:14;;;;;;;39.75;4.82;;;;;;;8.33;100.00;103393.41;5044993;28;20033;-62
2023/02/04 00:31:39;;;;;;;44.88;6.93;;;;;;;8.32;100.00;103391.66;5046823;28;20039;-70
2023/02/04 00:34:04;;;;;;;46.63;6.45;;;;;;;8.28;100.00;103394.19;5046118;28;20112;-68
2023/02/04 00:36:30;;;;;;;32.75;5.60;;;;;;;8.31;100.00;103397.72;5045502;28;20033;-72
2023/02/04 00:38:55;;;;;;;45.13;5.88;;;;;;;8.29;100.00;103402.09;5028636;28;20472;-68
2023/02/04 00:41:20;;;;;;;40.45;5.00;;;;;;;8.29;100.00;103399.47;5046833;28;20032;-67
2023/02/04 00:43:46;;;;;;;36.08;6.10;;;;;;;8.33;100.00;103401.28;5046604;28;20028;-69
2023/02/04 00:46:11;;;;;;;34.72;4.72;;;;;;;8.29;100.00;103396.84;5046224;28;20043;-68
2023/02/04 00:48:36;;;;;;;39.83;5.30;;;;;;;8.28;100.00;103399.44;5046882;28;20375;-64
2023/02/04 00:51:02;;;;;;;31.50;5.65;;;;;;;8.27;100.00;103406.44;5047080;28;20041;-70
2023/02/04 00:53:27;;;;;;;35.65;4.88;;;;;;;8.31;100.00;103410.88;5045606;28;20021;-70
2023/02/04 00:55:53;;;;;;;44.47;6.07;;;;;;;8.24;100.00;103406.38;5046928;28;20120;-67
2023/02/04 00:58:18;;;;;;;40.45;5.18;;;;;;;8.28;100.00;103410.81;5046833;28;20021;-67
2023/02/04 01:00:43;;;;;;;43.70;4.90;;;;;;;8.31;100.00;103413.50;5046916;28;20017;-69
2023/02/04 01:03:09;;;;;;;33.85;4.32;;;;;;;8.36;100.00;103417.97;5046404;28;20029;-67
2023/02/04 01:05:34;;;;;;;41.30;7.22;;;;;;;8.32;100.00;103411.78;5033826;28;20045;-70
2023/02/04 01:07:59;;;;;;;34.45;5.00;;;;;;;8.32;100.00;103415.28;5045346;28;20029;-68
2023/02/04 01:10:25;;;;;;;28.52;4.85;;;;;;;8.40;100.00;103404.88;5045493;28;20103;-69
2023/02/04 01:12:51;;;;;;;30.13;4.80;;;;;;;8.34;100.00;103405.66;5046589;28;20052;-69
2023/02/04 01:15:16;;;;;;;32.05;4.47;;;;;;;8.39;100.00;103408.38;5046693;28;20108;-61
2023/02/04 01:17:41;;;;;;;26.92;4.45;;;;;;;8.38;100.00;103421.50;5046193;28;20047;-70
2023/02/04 01:20:09;;;;;;;36.45;4.85;;;;;;;8.34;100.00;103418.81;5050454;28;20171;-66
2023/02/04 01:22:34;;;;;;;33.30;5.13;;;;;;;8.41;100.00;103417.19;5014416;28;20032;-68
2023/02/04 01:24:59;;;;;;;29.45;4.32;;;;;;;8.44;100.00;103430.38;5050547;28;20025;-70
2023/02/04 01:27:25;;;;;;;32.10;4.47;;;;;;;8.41;100.00;103421.53;5032305;28;20456;-65
2023/02/04 01:29:50;;;;;;;22.67;3.85;;;;;;;8.36;100.00;103428.47;5049570;28;20029;-64
2023/02/04 01:32:16;;;;;;;34.00;5.18;;;;;;;8.37;100.00;103431.09;5031899;28;20032;-68
2023/02/04 01:34:41;;;;;;;29.63;4.95;;;;;;;8.42;100.00;103441.69;5048602;28;20029;-66
2023/02/04 01:37:06;;;;;;;35.53;5.47;;;;;;;8.43;100.00;103441.72;5049767;28;20047;-68
2023/02/04 01:39:32;;;;;;;33.75;5.32;;;;;;;8.46;100.00;103446.16;5049586;28;20072;-69
2023/02/04 01:41:59;;;;;;;27.48;4.22;;;;;;;8.43;100.00;103446.13;5049816;28;20379;-67
2023/02/04 01:44:25;;;;;;;28.27;4.22;;;;;;;8.42;100.00;103442.59;5050082;28;20048;-68
2023/02/04 01:46:50;;;;;;;30.70;5.35;;;;;;;8.40;100.00;103446.06;5050636;28;20494;-65
2023/02/04 01:49:16;;;;;;;25.00;4.72;;;;;;;8.40;100.00;103452.19;5049698;28;20029;-70
2023/02/04 01:51:42;;;;;;;31.20;4.82;;;;;;;8.42;100.00;103449.56;5050071;28;20029;-68
2023/02/04 01:54:11;;;;;;;40.88;5.70;;;;;;;8.30;100.00;103458.13;5048155;28;20013;-67
2023/02/04 01:56:36;;;;;;;37.55;5.32;;;;;;;8.34;100.00;103458.22;5049517;28;20491;-62
2023/02/04 01:59:11;;;;;;;29.67;4.32;;;;;;;8.32;100.00;103459.94;5050057;28;20029;-71
2023/02/04 02:01:52;;;;;;;44.28;5.40;;;;;;;8.30;100.00;103456.41;5048660;28;20074;-69
2023/02/04 02:04:29;;;;;;;29.23;4.45;;;;;;;8.32;100.00;103464.31;5050078;28;20036;-62
2023/02/04 02:06:58;;;;;;;38.60;4.65;;;;;;;8.25;100.00;103465.06;5031364;28;20476;-70
2023/02/04 02:09:24;;;;;;;34.80;4.97;;;;;;;8.26;100.00;103467.72;5030912;28;20029;-66
2023/02/04 02:11:50;;;;;;;25.45;4.15;;;;;;;8.26;100.00;103466.81;5050550;28;20021;-70
2023/02/04 02:14:15;;;;;;;35.58;5.07;;;;;;;8.24;100.00;103477.28;5031408;28;20033;-64
2023/02/04 02:16:41;;;;;;;31.05;5.15;;;;;;;8.19;100.00;103466.69;5049292;28;20795;-63
2023/02/04 02:19:09;;;;;;;37.63;5.55;;;;;;;8.19;100.00;103469.31;5031683;28;20081;-68
2023/02/04 02:21:52;;;;;;;34.28;4.55;;;;;;;8.17;100.00;103471.06;5000737;28;20025;-70
2023/02/04 02:24:35;;;;;;;45.42;5.60;;;;;;;8.16;100.00;103473.66;5028165;28;20057;-68
2023/02/04 02:27:07;;;;;;;39.83;5.65;;;;;;;8.21;100.00;103471.97;5029555;28;20030;-66
2023/02/04 02:29:33;;;;;;;39.05;5.05;;;;;;;8.18;100.00;103477.19;5029303;28;20030;-63
2023/02/04 02:31:58;;;;;;;39.47;5.90;;;;;;;8.20;100.00;103472.84;5012495;28;20039;-68
2023/02/04 02:34:25;;;;;;;37.03;4.97;;;;;;;8.19;100.00;103476.34;5031917;28;20032;-69
2023/02/04 02:36:50;;;;;;;37.22;5.32;;;;;;;8.16;100.00;103478.91;5031961;28;20021;-69
2023/02/04 02:39:17;;;;;;;34.92;4.78;;;;;;;8.12;100.00;103479.72;5048630;28;20059;-71
2023/02/04 02:41:42;;;;;;;40.95;4.88;;;;;;;8.13;100.00;103477.09;5029869;28;20076;-67
2023/02/04 02:44:09;;;;;;;41.08;5.47;;;;;;;8.17;100.00;103485.91;5048990;28;20052;-68
2023/02/04 02:46:35;;;;;;;42.10;4.95;;;;;;;8.12;100.00;103487.59;5030258;28;20684;-70
2023/02/04 02:49:00;;;;;;;39.22;4.72;;;;;;;8.11;100.00;103485.81;5049226;28;20021;-65
2023/02/04 02:51:25;;;;;;;29.23;4.43;;;;;;;8.16;100.00;103485.03;5048915;28;20478;-61
2023/02/04 02:53:51;;;;;;;31.13;5.65;;;;;;;8.18;100.00;103487.69;5030569;28;20090;-72
2023/02/04 02:56:17;;;;;;;39.45;5.55;;;;;;;8.19;100.00;103489.47;5031495;28;20040;-70
2023/02/04 02:58:42;;;;;;;42.05;5.63;;;;;;;8.20;100.00;103494.75;5029702;28;20548;-68
2023/02/04 03:01:09;;;;;;;26.17;5.00;;;;;;;8.16;100.00;103492.91;5048001;28;20033;-67
2023/02/04 03:03:36;;;;;;;28.95;4.95;;;;;;;8.21;100.00;103495.63;5048032;28;20029;-69
2023/02/04 03:06:12;;;;;;;37.13;4.75;;;;;;;8.19;100.00;103492.09;5046575;28;20478;-66
2023/02/04 03:08:38;;;;;;;34.53;5.25;;;;;;;8.20;100.00;103491.22;5047875;28;20067;-67
2023/02/04 03:11:04;;;;;;;35.28;4.72;;;;;;;8.21;100.00;103485.13;5047617;28;20029;-67
2023/02/04 03:13:29;;;;;;;32.80;5.00;;;;;;;8.19;100.00;103484.22;5047844;28;20044;-66
2023/02/04 03:15:55;;;;;;;28.63;4.68;;;;;;;8.19;100.00;103487.72;5048157;28;20021;-69
2023/02/04 03:18:21;;;;;;;27.00;4.95;;;;;;;8.13;100.00;103486.72;5030576;28;20033;-70
2023/02/04 03:20:47;;;;;;;34.22;4.85;;;;;;;8.20;100.00;103486.88;5048590;28;20025;-65
2023/02/04 03:23:13;;;;;;;30.23;4.60;;;;;;;8.15;100.00;103482.38;5029474;28;20049;-65
2023/02/04 03:25:38;;;;;;;29.23;4.22;;;;;;;8.17;100.00;103492.06;5047275;28;20074;-67
2023/02/04 03:28:04;;;;;;;35.60;5.68;;;;;;;8.10;100.00;103495.44;5030573;28;20013;-69
2023/02/04 03:30:30;;;;;;;41.35;5.95;;;;;;;8.14;100.00;103491.13;5047182;28;20103;-67
2023/02/04 03:32:56;;;;;;;38.65;5.72;;;;;;;8.04;100.00;103487.44;5047481;28;20052;-68
2023/02/04 03:35:21;;;;;;;26.80;5.03;;;;;;;8.04;100.00;103488.31;5030261;28;20049;-60
2023/02/04 03:37:47;;;;;;;35.13;5.13;;;;;;;8.06;100.00;103485.72;5029352;28;20047;-66
2023/02/04 03:40:12;;;;;;;42.88;5.80;;;;;;;7.99;100.00;103495.22;5047631;28;20116;-67
2023/02/04 03:42:38;;;;;;;40.40;5.97;;;;;;;8.00;100.00;103486.47;5046414;28;20098;-68
2023/02/04 03:45:03;;;;;;;29.80;4.78;;;;;;;8.00;100.00;103485.63;5047272;28;20033;-67
2023/02/04 03:47:29;;;;;;;27.75;4.47;;;;;;;7.96;100.00;103492.53;5046977;28;20032;-62
2023/02/04 03:49:54;;;;;;;39.28;6.25;;;;;;;7.97;100.00;103483.78;5047116;28;20021;-68
2023/02/04 03:52:19;;;;;;;35.20;4.82;;;;;;;7.92;100.00;103486.31;5047924;28;20453;-66
2023/02/04 03:54:45;;;;;;;27.13;4.93;;;;;;;7.94;100.00;103486.34;5047864;28;20029;-69
2023/02/04 03:57:10;;;;;;;29.48;4.28;;;;;;;7.95;100.00;103496.03;5047624;28;20660;-69
2023/02/04 03:59:36;;;;;;;28.73;4.10;;;;;;;7.87;100.00;103492.34;5047518;28;20403;-64
2023/02/04 04:02:01;;;;;;;27.23;4.93;;;;;;;7.88;100.00;103491.47;5047220;28;20750;-68
2023/02/04 04:04:27;;;;;;;40.70;5.85;;;;;;;7.89;100.00;103495.88;5046891;28;20468;-69
2023/02/04 04:06:52;;;;;;;38.17;4.65;;;;;;;7.92;100.00;103495.97;5047633;28;20032;-66
2023/02/04 04:09:17;;;;;;;38.72;4.88;;;;;;;7.97;100.00;103500.44;5046109;28;20044;-65
2023/02/04 04:11:43;;;;;;;42.97;6.38;;;;;;;8.03;100.00;103497.03;5046686;28;20047;-70
2023/02/04 04:14:08;;;;;;;29.77;4.43;;;;;;;8.01;100.00;103497.88;5047055;28;20053;-70
2023/02/04 04:16:33;;;;;;;34.72;4.93;;;;;;;8.00;100.00;103494.34;5047138;28;20036;-71
2023/02/04 04:18:59;;;;;;;38.35;4.95;;;;;;;7.88;100.00;103496.72;5047536;28;20033;-61
2023/02/04 04:21:24;;;;;;;43.83;6.20;;;;;;;7.71;100.00;103486.78;5046940;28;20029;-68
2023/02/04 04:23:49;;;;;;;42.83;5.10;;;;;;;7.72;100.00;103488.56;5046941;28;20509;-69
2023/02/04 04:26:16;;;;;;;35.70;5.18;;;;;;;7.67;100.00;103495.44;5047140;28;20033;-69
2023/02/04 04:28:41;;;;;;;31.13;5.10;;;;;;;7.72;100.00;103501.69;5046246;28;20025;-68
2023/02/04 04:31:08;;;;;;;44.22;6.82;;;;;;;7.66;100.00;103496.28;5047250;28;20709;-70
2023/02/04 04:33:33;;;;;;;41.63;5.95;;;;;;;7.77;100.00;103501.78;5046314;28;20029;-70
2023/02/04 04:35:58;;;;;;;36.15;5.18;;;;;;;7.80;100.00;103501.84;5047891;28;20039;-70
2023/02/04 04:38:24;;;;;;;40.92;5.55;;;;;;;7.82;100.00;103506.25;5046263;28;20466;-64
2023/02/04 04:40:49;;;;;;;54.92;6.55;;;;;;;7.92;100.00;103511.72;5046894;28;20055;-60
2023/02/04 04:43:14;;;;;;;47.40;6.13;;;;;;;7.91;100.00;103520.41;5046877;28;20023;-69
2023/02/04 04:45:39;;;;;;;44.05;6.03;;;;;;;8.04;100.00;103524.19;5046372;28;20059;-68
2023/02/04 04:48:05;;;;;;;42.08;5.10;;;;;;;8.15;100.00;103537.53;5046993;28;20025;-70
2023/02/04 04:50:30;;;;;;;30.33;4.88;;;;;;;8.23;100.00;103530.69;5047169;28;20556;-61
2023/02/04 04:52:55;;;;;;;28.35;4.85;;;;;;;8.18;100.00;103538.47;5044968;28;20486;-67
2023/02/04 04:55:21;;;;;;;33.97;5.32;;;;;;;8.23;100.00;103541.22;5051184;28;20462;-70
2023/02/04 04:57:46;;;;;;;28.20;4.00;;;;;;;8.21;100.00;103530.66;5049820;28;20063;-70
2023/02/04 05:00:15;;;;;;;46.47;5.65;;;;;;;8.23;100.00;103541.22;5050860;28;20082;-63
2023/02/04 05:02:42;;;;;;;29.83;4.70;;;;;;;8.30;100.00;103535.22;5051111;28;20083;-70
2023/02/04 05:05:07;;;;;;;43.40;5.13;;;;;;;8.25;100.00;103538.59;5050090;28;20067;-68
2023/02/04 05:07:32;;;;;;;44.75;6.47;;;;;;;8.21;100.00;103537.66;5048825;28;20029;-68
2023/02/04 05:09:58;;;;;;;28.30;5.35;;;;;;;8.18;100.00;103543.75;5033298;28;20049;-68
2023/02/04 05:12:23;;;;;;;41.58;5.15;;;;;;;8.21;100.00;103545.53;5049283;28;20029;-70
2023/02/04 05:14:49;;;;;;;36.28;4.60;;;;;;;8.23;100.00;103535.94;5050092;28;20033;-67
2023/02/04 05:17:14;;;;;;;31.88;4.72;;;;;;;8.27;100.00;103539.50;5050888;28;20033;-63
2023/02/04 05:19:39;;;;;;;24.95;4.45;;;;;;;8.25;100.00;103539.47;5049911;28;20382;-70
2023/02/04 05:22:04;;;;;;;34.90;4.53;;;;;;;8.24;100.00;103532.47;5050153;28;20039;-71
2023/02/04 05:24:30;;;;;;;27.15;4.65;;;;;;;8.29;100.00;103538.69;5050597;28;20044;-61
2023/02/04 05:26:55;;;;;;;34.35;5.00;;;;;;;8.26;100.00;103549.16;5049946;28;20085;-69
2023/02/04 05:29:21;;;;;;;31.92;5.75;;;;;;;8.31;100.00;103547.47;5050506;28;20028;-68
2023/02/04 05:31:46;;;;;;;32.10;4.63;;;;;;;8.28;100.00;103550.03;5050315;28;20476;-67
2023/02/04 05:34:11;;;;;;;39.00;6.05;;;;;;;8.28;100.00;103557.94;5040002;28;20069;-72
2023/02/04 05:36:37;;;;;;;36.08;4.93;;;;;;;8.25;100.00;103557.88;5032618;28;20364;-71
2023/02/04 05:39:02;;;;;;;24.85;4.10;;;;;;;8.24;100.00;103553.47;5021806;28;20396;-68
2023/02/04 05:41:27;;;;;;;37.45;4.15;;;;;;;8.31;100.00;103560.63;5040874;28;20056;-70
2023/02/04 05:43:53;;;;;;;28.95;4.22;;;;;;;8.35;100.00;103553.69;5038338;28;20091;-67
2023/02/04 05:46:18;;;;;;;26.83;4.70;;;;;;;8.32;100.00;103549.28;5049676;28;20068;-68
2023/02/04 05:48:43;;;;;;;33.47;4.45;;;;;;;8.38;100.00;103555.47;5049839;28;20025;-69
2023/02/04 05:51:09;;;;;;;29.65;5.30;;;;;;;8.38;100.00;103558.13;5049504;28;20033;-68
2023/02/04 05:53:34;;;;;;;32.55;4.90;;;;;;;8.30;100.00;103564.09;5048733;28;20360;-70
2023/02/04 05:56:00;;;;;;;33.42;5.50;;;;;;;8.30;100.00;103564.09;5045879;28;20028;-69
2023/02/04 05:58:32;;;;;;;36.30;5.25;;;;;;;8.28;100.00;103568.44;5049154;28;20055;-68
2023/02/04 06:00:57;;;;;;;40.65;7.50;;;;;;;8.38;100.00;103573.88;5049752;28;20021;-68
2023/02/04 06:03:23;;;;;;;35.97;6.10;;;;;;;8.34;100.00;103571.19;5048695;28;20021;-68
2023/02/04 06:05:48;;;;;;;40.95;6.28;;;;;;;8.38;100.00;103573.88;5048950;28;20028;-69
2023/02/04 06:08:14;;;;;;;45.28;5.80;;;;;;;8.33;100.00;103572.06;5048251;28;20452;-65
2023/02/04 06:10:40;;;;;;;36.85;6.35;;;;;;;8.33;100.00;103569.44;5048628;28;20078;-69
2023/02/04 06:13:05;;;;;;;37.35;6.53;;;;;;;8.36;100.00;103576.47;5048885;28;20021;-69
2023/02/04 06:15:30;;;;;;;30.40;4.80;;;;;;;8.42;100.00;103583.59;5048176;28;20020;-67
2023/02/04 06:17:57;;;;;;;37.55;5.60;;;;;;;8.40;100.00;103583.56;5049453;28;20108;-69
2023/02/04 06:20:22;;;;;;;39.17;5.97;;;;;;;8.41;100.00;103594.97;5048749;28;20048;-63
2023/02/04 06:22:50;;;;;;;39.95;6.88;;;;;;;8.43;100.00;103596.75;5047081;28;20475;-70
2023/02/04 06:25:16;;;;;;;39.55;6.00;;;;;;;8.37;100.00;103598.38;5048980;28;20047;-68
2023/02/04 06:27:41;;;;;;;36.70;5.57;;;;;;;8.37;100.00;103595.75;5048862;28;20395;-69
2023/02/04 06:30:07;;;;;;;35.95;5.65;;;;;;;8.35;100.00;103608.88;5048566;28;20032;-70
2023/02/04 06:32:33;;;;;;;41.75;6.50;;;;;;;8.28;100.00;103610.47;5047881;28;20021;-63
2023/02/04 06:34:58;;;;;;;40.65;6.13;;;;;;;8.27;100.00;103611.34;5048889;28;20082;-70
2023/02/04 06:37:23;;;;;;;36.65;5.57;;;;;;;8.28;100.00;103609.59;5047298;28;20021;-70
2023/02/04 06:39:49;;;;;;;30.08;4.57;;;;;;;8.29;100.00;103603.47;5049166;28;20032;-68
2023/02/04 06:42:14;;;;;;;24.77;5.00;;;;;;;8.30;100.00;103610.50;5048831;28;20471;-71
2023/02/04 06:44:39;;;;;;;31.50;7.18;;;;;;;8.30;100.00;103608.78;5048005;28;20074;-69
2023/02/04 06:47:05;;;;;;;41.20;10.27;;;;;;;8.35;100.00;103616.75;5049098;28;20112;-64
2023/02/04 06:49:30;;;;;;;39.75;9.27;;;;;;;8.31;100.00;103607.91;5048124;28;20068;-70
2023/02/04 06:51:55;;;;;;;36.85;8.02;;;;;;;8.31;100.00;103610.53;5047831;28;20032;-71
2023/02/04 06:54:21;;;;;;;23.05;6.22;;;;;;;8.32;100.00;103621.94;5049818;28;20592;-63
2023/02/04 06:56:46;;;;;;;38.03;6.60;;;;;;;8.30;100.00;103624.53;5048870;28;20033;-71
2023/02/04 06:59:12;;;;;;;35.03;6.82;;;;;;;8.32;100.00;103617.59;5049125;28;20095;-67
2023/02/04 07:01:37;;;;;;;29.70;5.15;;;;;;;8.30;100.00;103619.28;5049290;28;20032;-71
2023/02/04 07:04:03;;;;;;;42.70;5.45;;;;;;;8.29;100.00;103625.41;5030419;28;20039;-68
2023/02/04 07:06:28;;;;;;;39.53;5.95;;;;;;;8.33;100.00;103628.94;5048455;28;20492;-66
2023/02/04 07:08:53;;;;;;;36.63;6.00;;;;;;;8.29;100.00;103633.28;5047357;28;20456;-70
2023/02/04 07:11:19;;;;;;;26.52;4.10;;;;;;;8.36;100.00;103625.53;5048238;28;20048;-60
2023/02/04 07:13:44;;;;;;;40.45;6.10;;;;;;;8.36;100.00;103628.16;5048503;28;20036;-67
2023/02/04 07:16:09;;;;;;;33.42;4.80;;;;;;;8.42;100.00;103638.75;5047550;28;20493;-71
2023/02/04 07:18:35;;;;;;;42.88;6.65;;;;;;;8.45;100.00;103634.47;5048448;28;20033;-71
2023/02/04 07:21:00;;;;;;;38.80;6.05;;;;;;;8.44;100.00;103639.69;5047736;28;20388;-68
2023/02/04 07:23:27;;;;;;;39.95;5.20;;;;;;;8.51;100.00;103636.34;5038106;28;20266;-65
2023/02/04 07:25:54;;;;;;;32.65;5.13;;;;;;;8.56;100.00;103636.47;5020693;28;20021;-67
2023/02/04 07:28:20;;;;;;;35.83;5.22;;;;;;;8.54;100.00;103628.53;5038738;28;20030;-69
2023/02/04 07:30:45;;;;;;;34.25;4.97;;;;;;;8.61;100.00;103628.66;5029050;28;20460;-70
2023/02/04 07:33:11;;;;;;;29.73;5.07;;;;;;;8.59;100.00;103636.53;5047173;28;20031;-65
2023/02/04 07:35:39;;;;;;;46.22;6.60;;;;;;;8.63;100.00;103627.84;5047697;28;20115;-68
2023/02/04 07:38:04;;;;;;;37.30;5.63;;;;;;;8.64;100.00;103636.63;5046568;28;20025;-69
2023/02/04 07:40:30;;;;;;;36.28;5.57;;;;;;;8.63;100.00;103640.06;5047301;28;20286;-69
2023/02/04 07:42:55;;;;;;;34.53;5.70;;;;;;;8.71;100.00;103651.66;5048019;28;20391;-67
2023/02/04 07:45:21;;;;;;;38.33;5.53;;;;;;;8.69;100.00;103658.59;5048781;28;20025;-66
2023/02/04 07:47:46;;;;;;;34.22;5.68;;;;;;;8.76;100.00;103659.63;5047408;28;20607;-68
2023/02/04 07:50:12;;;;;;;42.22;6.15;;;;;;;8.72;100.00;103649.03;5042525;28;20594;-67
2023/02/04 07:52:37;;;;;;;42.03;6.60;;;;;;;8.72;100.00;103658.66;5035286;28;20108;-65
2023/02/04 07:55:03;;;;;;;35.05;5.68;;;;;;;8.81;100.00;103661.47;5019630;28;20024;-69
2023/02/04 07:57:29;;;;;;;41.72;6.22;;;;;;;8.83;100.00;103657.16;5039062;28;20526;-67
2023/02/04 07:59:55;;;;;;;44.38;7.15;;;;;;;8.85;100.00;103660.66;5033934;28;20036;-66
2023/02/04 08:02:20;;;;;;;43.20;7.43;;;;;;;8.90;100.00;103667.75;5027684;28;20030;-66
2023/02/04 08:04:45;;;;;;;36.95;7.13;;;;;;;8.94;100.00;103666.97;5027763;28;20037;-70
2023/02/04 08:07:12;;;;;;;41.78;6.85;;;;;;;8.94;100.00;103672.25;5045071;28;20107;-67
2023/02/04 08:09:37;;;;;;;36.95;6.57;;;;;;;8.95;100.00;103677.53;5044139;28;20061;-66
2023/02/04 08:12:05;;;;;;;43.30;7.45;;;;;;;9.02;100.00;103678.50;5046917;28;20021;-71
2023/02/04 08:14:31;;;;;;;40.37;7.10;;;;;;;9.03;100.00;103685.53;5046071;28;20410;-65
2023/02/04 08:16:56;;;;;;;46.22;7.97;;;;;;;9.02;100.00;103693.41;5046456;28;20057;-60
2023/02/04 08:19:21;;;;;;;39.20;7.50;;;;;;;9.01;100.00;103692.53;5046782;28;20481;-63
2023/02/04 08:21:47;;;;;;;34.97;6.35;;;;;;;9.04;100.00;103692.59;5046403;28;20025;-64
2023/02/04 08:24:14;;;;;;;32.65;6.38;;;;;;;9.09;100.00;103700.53;5041664;28;20040;-66
2023/02/04 08:26:40;;;;;;;35.40;6.55;;;;;;;9.03;100.00;103700.44;5040541;28;20414;-69
2023/02/04 08:29:06;;;;;;;34.22;6.28;;;;;;;8.94;100.00;103703.78;5037314;28;20099;-68
2023/02/04 08:31:31;;;;;;;40.60;7.88;;;;;;;8.93;100.00;103705.53;5036816;28;20140;-70
2023/02/04 08:33:56;;;;;;;50.60;8.60;;;;;;;8.98;100.00;103703.84;5041424;28;20104;-66
2023/02/04 08:36:22;;;;;;;33.92;6.78;;;;;;;9.04;100.00;103704.84;5045971;28;20150;-68
2023/02/04 08:38:47;;;;;;;42.03;7.50;;;;;;;9.00;100.00;103705.66;5038977;28;20148;-71
2023/02/04 08:41:12;;;;;;;42.22;6.15;;;;;;;9.03;100.00;103711.84;5046937;28;20029;-67
2023/02/04 08:43:38;;;;;;;41.78;6.43;;;;;;;9.14;100.00;103712.06;5044931;28;20033;-69
2023/02/04 08:46:04;;;;;;;43.53;6.18;;;;;;;9.14;100.00;103717.31;5037400;28;20029;-68
2023/02/04 08:48:29;;;;;;;37.85;6.13;;;;;;;9.23;100.00;103719.22;5043107;28;20037;-68
2023/02/04 08:50:54;;;;;;;37.25;6.88;;;;;;;9.39;100.00;103716.88;5056441;28;20025;-70
2023/02/04 08:53:20;;;;;;;37.17;6.60;;;;;;;9.41;100.00;103717.78;5026363;28;20561;-61
2023/02/04 08:55:45;;;;;;;48.72;7.70;;;;;;;9.48;100.00;103714.38;5045777;28;20074;-65
2023/02/04 08:58:10;;;;;;;32.10;6.82;;;;;;;9.70;100.00;103722.66;5046300;28;20900;-71
2023/02/04 09:00:36;;;;;;;41.30;8.15;;;;;;;9.76;100.00;103722.75;5045934;28;20356;-70
2023/02/04 09:03:01;;;;;;;36.33;7.38;;;;;;;9.70;100.00;103725.28;5046390;28;20021;-67
2023/02/04 09:05:26;;;;;;;43.83;8.07;;;;;;;9.64;100.00;103719.91;5045897;28;20025;-70
2023/02/04 09:07:52;;;;;;;42.70;7.97;;;;;;;9.64;100.00;103717.28;5044794;28;20040;-70
2023/02/04 09:10:17;;;;;;;39.70;7.18;;;;;;;9.68;100.00;103727.91;5046495;28;20112;-69
2023/02/04 09:12:43;;;;;;;35.30;6.80;;;;;;;9.62;100.00;103727.78;5045771;28;20464;-72
2023/02/04 09:15:09;;;;;;;45.65;7.00;;;;;;;9.67;100.00;103725.22;5046104;28;20060;-69
2023/02/04 09:17:36;;;;;;;33.42;8.18;;;;;;;9.72;100.00;103734.06;5023063;28;20024;-71
2023/02/04 09:20:01;;;;;;;34.65;7.22;;;;;;;9.69;100.00;103740.19;5045875;28;20029;-71
2023/02/04 09:22:26;;;;;;;37.03;7.93;;;;;;;9.57;100.00;103740.88;5043895;28;20025;-66
2023/02/04 09:24:52;;;;;;;32.78;7.55;;;;;;;9.78;100.00;103743.84;5045743;28;20049;-62
2023/02/04 09:27:18;;;;;;;29.38;6.88;;;;;;;9.88;100.00;103750.13;5045738;28;20032;-66
2023/02/04 09:29:43;;;;;;;27.70;7.30;;;;;;;10.01;100.00;103748.56;5045422;28;20497;-69
2023/02/04 09:32:12;;;;;;;30.00;6.38;;;;;;;10.05;100.00;103748.66;5045876;28;20029;-68
2023/02/04 09:34:37;;;;;;;31.67;8.15;;;;;;;9.93;100.00;103745.84;5044755;28;20475;-67
2023/02/04 09:37:03;;;;;;;24.15;6.07;;;;;;;9.89;100.00;103754.53;5045191;28;20040;-70
2023/02/04 09:39:28;;;;;;;27.73;5.90;;;;;;;9.91;100.00;103755.47;5045920;28;20107;-70
2023/02/04 09:41:54;;;;;;;32.35;6.25;;;;;;;10.03;100.00;103753.03;5047596;28;20048;-70
2023/02/04 09:44:22;;;;;;;31.35;5.57;;;;;;;10.13;100.00;103755.78;5049773;28;20037;-67
2023/02/04 09:46:54;;;;;;;33.22;6.10;;;;;;;10.16;100.00;103751.44;5049713;28;20024;-70
2023/02/04 09:49:19;;;;;;;25.42;6.22;;;;;;;10.16;100.00;103763.72;5048562;28;20037;-69
2023/02/04 09:51:45;;;;;;;38.75;6.55;;;;;;;10.26;100.00;103762.13;5049168;28;20411;-68
2023/02/04 09:54:13;;;;;;;36.35;5.70;;;;;;;10.29;100.00;103763.03;5049181;28;20035;-69
2023/02/04 09:56:39;;;;;;;37.75;7.15;;;;;;;10.23;100.00;103762.94;5031156;28;20083;-68
2023/02/04 09:59:12;;;;;;;32.50;6.28;;;;;;;10.20;100.00;103768.19;5050000;28;20028;-63
2023/02/04 10:01:38;;;;;;;27.75;5.97;;;;;;;10.32;100.00;103778.91;5049107;28;20021;-70
2023/02/04 10:04:03;;;;;;;33.08;7.00;;;;;;;10.55;100.00;103770.47;5049228;28;20415;-66
2023/02/04 10:06:29;;;;;;;27.42;5.60;;;;;;;10.48;100.00;103774.75;5040420;28;20034;-64
2023/02/04 10:08:54;;;;;;;27.08;5.80;;;;;;;10.34;100.00;103777.19;5040920;28;20067;-64
2023/02/04 10:11:21;;;;;;;31.65;7.10;;;;;;;10.51;100.00;103784.50;5040536;28;20057;-64
2023/02/04 10:13:49;;;;;;;32.22;6.05;;;;;;;10.16;100.00;103790.06;5057600;28;20032;-69
2023/02/04 10:16:18;;;;;;;31.13;6.28;;;;;;;10.08;100.00;103790.84;5041025;28;20021;-66
2023/02/04 10:18:43;;;;;;;31.02;6.60;;;;;;;10.10;100.00;103794.41;5040935;28;20103;-63
2023/02/04 10:21:18;;;;;;;29.88;6.88;;;;;;;10.23;100.00;103789.31;5038868;28;20108;-70
2023/02/04 10:23:48;;;;;;;34.70;6.47;;;;;;;10.44;100.00;103794.00;5018642;28;20372;-65
2023/02/04 10:26:15;;;;;;;32.97;6.47;;;;;;;10.40;100.00;103788.66;5003184;28;20100;-63
2023/02/04 10:28:41;;;;;;;34.47;6.82;;;;;;;10.40;100.00;103791.31;5018383;28;20674;-64
2023/02/04 10:31:31;;;;;;;21.63;5.60;;;;;;;10.36;100.00;103793.03;5018452;28;20018;-65
2023/02/04 10:34:03;;;;;;;28.65;5.47;;;;;;;10.59;100.00;103793.38;5021836;28;20064;-64
2023/02/04 10:36:28;;;;;;;39.60;6.43;;;;;;;10.71;100.00;103792.66;5018427;28;20036;-69
2023/02/04 10:39:01;;;;;;;33.55;5.90;;;;;;;10.82;100.00;103790.16;5017302;28;20034;-64
2023/02/04 10:41:26;;;;;;;26.25;4.78;;;;;;;10.84;100.00;103787.53;5020982;28;20387;-67
2023/02/04 10:44:03;;;;;;;31.05;5.80;;;;;;;10.91;100.00;103792.03;5022309;28;20032;-64
2023/02/04 10:46:30;;;;;;;31.52;6.20;;;;;;;10.78;100.00;103798.00;5021269;28;20070;-64
2023/02/04 10:48:56;;;;;;;26.70;5.80;;;;;;;10.66;100.00;103797.00;5014068;28;20053;-68
2023/02/04 10:51:21;;;;;;;31.52;7.10;;;;;;;10.61;100.00;103791.66;5027745;28;20563;-64
2023/02/04 10:56:30;;;;;;;37.95;6.15;;;;;;;10.30;100.00;103799.06;5025215;28;20087;-72
2023/02/04 10:58:55;;;;;;;39.08;7.03;;;;;;;10.28;100.00;103799.91;5028349;28;20108;-72
2023/02/04 11:01:21;;;;;;;33.85;5.97;;;;;;;10.43;100.00;103799.25;5027495;28;20021;-71
2023/02/04 11:03:47;;;;;;;35.17;6.57;;;;;;;10.59;100.00;103798.66;5028591;28;20060;-68
2023/02/04 11:06:19;;;;;;;32.60;7.65;;;;;;;10.56;100.00;103793.34;5027925;28;20423;-71
2023/02/04 11:08:45;;;;;;;31.23;6.15;;;;;;;10.69;100.00;103798.78;5022227;28;20026;-65
2023/02/04 11:11:13;;;;;;;23.52;4.90;;;;;;;10.75;100.00;103788.31;5008216;28;20053;-70
2023/02/04 11:13:57;;;;;;;22.48;5.35;;;;;;;10.77;100.00;103786.56;5008308;28;20037;-69